Terminal Aerodrome Forecast
Issued by NWS Jacksonville, FL

Home | Current Version | Previous Version | Text Only | Print | Product List | Glossary On
Versions: 1 2 3 4 5 6 7 8 9 10 11 12 13 14 15 16 17 18 19 20 21
000
FTUS42 KJAX 052058 AAC
TAFJAX
TAF AMD
KJAX 052058Z 0521/0618 29010KT 3SM TSRA SCT015 BKN030CB OVC050
      TEMPO 0521/0522 VRB15G25KT 1SM +TSRA BKN015CB OVC050
     FM060200 19004KT P6SM SCT100 BKN200
     FM061400 25005KT P6SM SCT030 BKN250=

USA.gov is the U.S. government's official web portal to all federal, state and local government web resources and services.